createdAt,value
2017-10-02T00:00:36.599Z,0
2017-10-02T00:01:45.300Z,0
2017-10-02T00:02:53.989Z,0
2017-10-02T00:04:03.968Z,0
2017-10-02T00:05:12.987Z,0
2017-10-02T00:06:21.685Z,0
2017-10-02T00:07:30.699Z,0
2017-10-02T00:08:39.396Z,0
2017-10-02T00:09:48.414Z,0
2017-10-02T00:10:57.430Z,0
2017-10-02T00:12:06.129Z,0
2017-10-02T00:13:15.146Z,0
2017-10-02T00:14:24.482Z,0
2017-10-02T00:15:33.500Z,0
2017-10-02T00:16:42.512Z,0
2017-10-02T00:17:51.216Z,0
2017-10-02T00:19:00.875Z,0
2017-10-02T00:20:09.890Z,0
2017-10-02T00:21:18.586Z,0
2017-10-02T00:22:28.571Z,0
2017-10-02T00:23:37.906Z,0
2017-10-02T00:24:47.560Z,0
2017-10-02T00:25:56.900Z,0
2017-10-02T00:27:06.552Z,0
2017-10-02T00:28:15.250Z,0
2017-10-02T00:29:23.951Z,0
2017-10-02T00:30:32.969Z,0
2017-10-02T00:31:41.666Z,0
2017-10-02T00:32:51.019Z,0
2017-10-02T00:34:00.031Z,0
2017-10-02T00:35:09.680Z,0
2017-10-02T00:36:19.011Z,0
2017-10-02T00:37:28.342Z,0
2017-10-02T00:38:37.360Z,0
2017-10-02T00:39:46.375Z,0
2017-10-02T00:40:55.706Z,0
2017-10-02T00:42:04.717Z,0
2017-10-02T00:43:14.373Z,0
2017-10-02T00:44:23.387Z,0
2017-10-02T00:45:33.356Z,0
2017-10-02T00:46:42.373Z,0
2017-10-02T00:47:52.029Z,0
2017-10-02T00:49:01.363Z,0
2017-10-02T00:50:10.694Z,0
2017-10-02T00:51:19.390Z,0
2017-10-02T00:52:29.045Z,0
2017-10-02T00:53:38.053Z,0
2017-10-02T00:54:47.383Z,0
2017-10-02T00:55:57.038Z,0
2017-10-02T00:57:06.371Z,0
2017-10-02T00:58:15.710Z,0
2017-10-02T00:59:24.720Z,0
2017-10-02T01:00:33.732Z,0
2017-10-02T01:01:42.749Z,0
2017-10-02T01:02:51.445Z,0
2017-10-02T01:04:00.778Z,0
2017-10-02T01:05:09.793Z,0
2017-10-02T01:06:19.454Z,0
2017-10-02T01:07:29.110Z,0
2017-10-02T01:08:37.806Z,0
2017-10-02T01:09:47.462Z,0
2017-10-02T01:10:57.122Z,0
2017-10-02T01:12:05.814Z,0
2017-10-02T01:13:14.826Z,0
2017-10-02T01:14:23.861Z,0
2017-10-02T01:15:33.205Z,0
2017-10-02T01:16:42.220Z,0
2017-10-02T01:17:51.232Z,0
2017-10-02T01:19:00.562Z,0
2017-10-02T01:20:09.584Z,0
2017-10-02T01:21:18.601Z,0
2017-10-02T01:22:27.300Z,0
2017-10-02T01:23:36.633Z,0
2017-10-02T01:24:45.652Z,0
2017-10-02T01:25:54.670Z,0
2017-10-02T01:27:03.683Z,0
2017-10-02T01:28:13.342Z,0
2017-10-02T01:29:22.674Z,0
2017-10-02T01:30:31.688Z,0
2017-10-02T01:31:40.385Z,0
2017-10-02T01:32:50.358Z,0
2017-10-02T01:33:59.053Z,0
2017-10-02T01:35:08.391Z,0
2017-10-02T01:36:17.415Z,0
2017-10-02T01:37:26.114Z,0
2017-10-02T01:38:35.453Z,0
2017-10-02T01:39:44.467Z,0
2017-10-02T01:40:54.116Z,0
2017-10-02T01:42:03.130Z,0
2017-10-02T01:43:12.150Z,0
2017-10-02T01:44:21.164Z,0
2017-10-02T01:45:30.817Z,0
2017-10-02T01:46:40.155Z,0
2017-10-02T01:47:48.845Z,0
2017-10-02T01:48:57.540Z,0
2017-10-02T01:50:06.239Z,0
2017-10-02T01:51:15.571Z,0
2017-10-02T01:52:24.264Z,0
2017-10-02T01:53:32.956Z,0
2017-10-02T01:54:41.654Z,0
2017-10-02T01:55:50.350Z,0
2017-10-02T01:56:59.682Z,0
2017-10-02T01:58:08.706Z,0
2017-10-02T01:59:18.363Z,0
2017-10-02T02:00:28.013Z,0
2017-10-02T02:01:37.025Z,0
2017-10-02T02:02:46.041Z,0
2017-10-02T02:03:54.734Z,0
2017-10-02T02:05:03.753Z,0
2017-10-02T02:06:12.768Z,0
2017-10-02T02:07:21.466Z,0
2017-10-02T02:08:30.803Z,0
2017-10-02T02:09:40.141Z,0
2017-10-02T02:10:49.160Z,0
2017-10-02T02:11:58.177Z,0
2017-10-02T02:13:07.510Z,0
2017-10-02T02:14:16.846Z,0
2017-10-02T02:15:26.181Z,0
2017-10-02T02:16:35.511Z,0
2017-10-02T02:17:44.525Z,0
2017-10-02T02:18:53.542Z,0
2017-10-02T02:20:03.197Z,0
2017-10-02T02:21:11.897Z,0
2017-10-02T02:22:20.593Z,0
2017-10-02T02:23:29.615Z,0
2017-10-02T02:24:38.310Z,0
2017-10-02T02:25:47.320Z,0
2017-10-02T02:26:56.331Z,0
2017-10-02T02:28:05.984Z,0
2017-10-02T02:29:15.642Z,0
2017-10-02T02:30:25.300Z,0
2017-10-02T02:31:34.636Z,0
2017-10-02T02:32:43.656Z,0
2017-10-02T02:33:52.351Z,0
2017-10-02T02:35:01.047Z,0
2017-10-02T02:36:09.739Z,0
2017-10-02T02:37:18.751Z,0
2017-10-02T02:38:27.763Z,0
2017-10-02T02:39:36.786Z,0
2017-10-02T02:40:46.448Z,0
2017-10-02T02:41:55.791Z,0
2017-10-02T02:43:04.815Z,0
2017-10-02T02:44:14.809Z,0
2017-10-02T02:45:24.138Z,0
2017-10-02T02:46:33.475Z,0
2017-10-02T02:47:42.485Z,0
2017-10-02T02:48:51.187Z,0
2017-10-02T02:50:00.525Z,0
2017-10-02T02:51:09.224Z,0
2017-10-02T02:52:18.567Z,0
2017-10-02T02:53:27.917Z,0
2017-10-02T02:54:37.250Z,0
2017-10-02T02:55:46.594Z,0
2017-10-02T02:56:55.930Z,0
2017-10-02T02:58:04.945Z,0
2017-10-02T02:59:13.957Z,0
2017-10-02T03:00:23.287Z,0
2017-10-02T03:01:32.946Z,0
2017-10-02T03:02:41.963Z,0
2017-10-02T03:03:50.657Z,0
2017-10-02T03:05:00.319Z,0
2017-10-02T03:06:09.655Z,0
2017-10-02T03:07:19.305Z,0
2017-10-02T03:08:27.999Z,0
2017-10-02T03:09:37.017Z,0
2017-10-02T03:10:46.359Z,0
2017-10-02T03:11:55.697Z,0
2017-10-02T03:13:04.711Z,0
2017-10-02T03:14:13.730Z,0
2017-10-02T03:15:23.380Z,0
2017-10-02T03:16:32.077Z,0
2017-10-02T03:17:41.091Z,0
2017-10-02T03:18:50.102Z,0
2017-10-02T03:19:59.756Z,0
2017-10-02T03:21:08.448Z,0
2017-10-02T03:22:18.116Z,0
2017-10-02T03:23:27.450Z,0
2017-10-02T03:24:36.461Z,0
2017-10-02T03:25:45.502Z,0
2017-10-02T03:26:55.156Z,0
2017-10-02T03:28:04.175Z,0
2017-10-02T03:29:12.870Z,0
2017-10-02T03:30:21.899Z,0
2017-10-02T03:31:30.918Z,0
2017-10-02T03:32:40.252Z,0
2017-10-02T03:33:49.596Z,0
2017-10-02T03:34:58.927Z,0
2017-10-02T03:36:08.581Z,0
2017-10-02T03:37:17.597Z,0
2017-10-02T03:38:26.614Z,0
2017-10-02T03:39:35.627Z,0
2017-10-02T03:40:44.962Z,0
2017-10-02T03:41:54.295Z,0
2017-10-02T03:43:03.628Z,0
2017-10-02T03:44:12.957Z,0
2017-10-02T03:45:22.293Z,0
2017-10-02T03:46:31.631Z,0
2017-10-02T03:47:40.648Z,0
2017-10-02T03:48:49.674Z,0
2017-10-02T03:49:58.689Z,0
2017-10-02T03:51:07.699Z,0
2017-10-02T03:52:17.035Z,0
2017-10-02T03:53:26.389Z,0
2017-10-02T03:54:35.403Z,0
2017-10-02T03:55:44.421Z,0
2017-10-02T03:56:53.763Z,0
2017-10-02T03:58:02.777Z,0
2017-10-02T03:59:11.469Z,0
2017-10-02T04:00:21.117Z,0
2017-10-02T04:01:30.769Z,0
2017-10-02T04:02:40.105Z,0
2017-10-02T04:03:49.122Z,0
2017-10-02T04:04:58.787Z,0
2017-10-02T04:06:07.803Z,0
2017-10-02T04:07:17.136Z,0
2017-10-02T04:08:26.472Z,0
2017-10-02T04:09:35.481Z,0
2017-10-02T04:10:44.179Z,0
2017-10-02T04:11:53.516Z,0
2017-10-02T04:13:02.529Z,0
2017-10-02T04:14:11.862Z,0
2017-10-02T04:15:21.194Z,0
2017-10-02T04:16:30.211Z,0
2017-10-02T04:17:39.230Z,0
2017-10-02T04:18:47.920Z,0
2017-10-02T04:19:56.938Z,0
2017-10-02T04:21:05.950Z,0
2017-10-02T04:22:14.643Z,0
2017-10-02T04:23:23.657Z,0
2017-10-02T04:24:33.310Z,0
2017-10-02T04:25:42.331Z,0
2017-10-02T04:26:51.665Z,0
2017-10-02T04:28:00.359Z,0
2017-10-02T04:29:09.050Z,0
2017-10-02T04:30:17.747Z,0
2017-10-02T04:31:26.438Z,0
2017-10-02T04:32:35.766Z,0
2017-10-02T04:33:44.776Z,0
2017-10-02T04:34:53.470Z,0
2017-10-02T04:36:02.167Z,0
2017-10-02T04:37:11.181Z,0
2017-10-02T04:38:20.829Z,0
2017-10-02T04:39:30.164Z,0
2017-10-02T04:40:39.182Z,0
2017-10-02T04:41:47.881Z,0
2017-10-02T04:42:56.577Z,0
2017-10-02T04:44:05.594Z,0
2017-10-02T04:45:14.604Z,0
2017-10-02T04:46:23.619Z,0
2017-10-02T04:47:32.642Z,0
2017-10-02T04:48:41.656Z,0
2017-10-02T04:49:50.673Z,0
2017-10-02T04:51:00.002Z,0
2017-10-02T04:52:09.977Z,0
2017-10-02T04:53:19.313Z,0
2017-10-02T04:54:28.324Z,0
2017-10-02T04:55:37.658Z,0
2017-10-02T04:56:46.990Z,0
2017-10-02T04:57:56.322Z,0
2017-10-02T04:59:05.979Z,0
2017-10-02T05:00:15.307Z,0
2017-10-02T05:01:24.956Z,0
2017-10-02T05:02:34.931Z,0
2017-10-02T05:03:44.265Z,0
2017-10-02T05:04:53.918Z,0
2017-10-02T05:06:02.932Z,0
2017-10-02T05:07:11.947Z,0
2017-10-02T05:08:20.966Z,0
2017-10-02T05:09:29.983Z,0
2017-10-02T05:10:38.675Z,0
2017-10-02T05:11:47.693Z,0
2017-10-02T05:12:57.026Z,0
2017-10-02T05:14:06.040Z,0
2017-10-02T05:15:14.734Z,0
2017-10-02T05:16:23.432Z,0
2017-10-02T05:17:33.087Z,0
2017-10-02T05:18:42.427Z,0
2017-10-02T05:19:51.758Z,0
2017-10-02T05:21:01.092Z,0
2017-10-02T05:22:10.435Z,0
2017-10-02T05:23:19.766Z,0
2017-10-02T05:24:28.468Z,0
2017-10-02T05:25:37.846Z,0
2017-10-02T05:26:46.862Z,0
2017-10-02T05:27:55.875Z,0
2017-10-02T05:29:04.890Z,0
2017-10-02T05:30:14.228Z,0
2017-10-02T05:31:24.202Z,0
2017-10-02T05:32:33.550Z,0
2017-10-02T05:33:42.885Z,0
2017-10-02T05:34:51.897Z,0
2017-10-02T05:36:01.232Z,0
2017-10-02T05:37:10.886Z,0
2017-10-02T05:38:19.583Z,0
2017-10-02T05:39:28.595Z,0
2017-10-02T05:40:37.951Z,0
2017-10-02T05:41:46.962Z,0
2017-10-02T05:42:55.975Z,0
2017-10-02T05:44:05.312Z,0
2017-10-02T05:45:14.003Z,0
2017-10-02T05:46:22.700Z,0
2017-10-02T05:47:32.037Z,0
2017-10-02T05:48:41.055Z,0
2017-10-02T05:49:50.069Z,0
2017-10-02T05:50:59.079Z,0
2017-10-02T05:52:08.414Z,0
2017-10-02T05:53:17.428Z,0
2017-10-02T05:54:26.121Z,0
2017-10-02T05:55:34.813Z,0
2017-10-02T05:56:43.510Z,0
2017-10-02T05:57:52.846Z,0
2017-10-02T05:59:02.194Z,0
2017-10-02T06:00:11.208Z,0
2017-10-02T06:01:21.180Z,0
2017-10-02T06:02:30.194Z,0
2017-10-02T06:03:39.208Z,0
2017-10-02T06:04:48.222Z,0
2017-10-02T06:05:57.231Z,0
2017-10-02T06:07:05.926Z,0
2017-10-02T06:08:14.945Z,0
2017-10-02T06:09:23.644Z,0
2017-10-02T06:10:32.978Z,0
2017-10-02T06:11:42.628Z,0
2017-10-02T06:12:51.319Z,0
2017-10-02T06:14:00.334Z,0
2017-10-02T06:15:09.671Z,0
2017-10-02T06:16:18.369Z,0
2017-10-02T06:17:27.064Z,0
2017-10-02T06:18:36.392Z,0
2017-10-02T06:19:45.406Z,0
2017-10-02T06:20:54.108Z,0
2017-10-02T06:22:03.447Z,0
2017-10-02T06:23:12.462Z,0
2017-10-02T06:24:21.797Z,0
2017-10-02T06:25:31.445Z,0
2017-10-02T06:26:40.141Z,0
2017-10-02T06:27:49.162Z,0
2017-10-02T06:28:58.492Z,0
2017-10-02T06:30:07.192Z,0
2017-10-02T06:31:16.853Z,0
2017-10-02T06:32:25.869Z,0
2017-10-02T06:33:35.202Z,0
2017-10-02T06:34:44.537Z,0
2017-10-02T06:35:54.185Z,0
2017-10-02T06:37:03.197Z,0
2017-10-02T06:38:12.208Z,0
2017-10-02T06:39:21.222Z,0
2017-10-02T06:40:30.555Z,0
2017-10-02T06:41:39.253Z,0
2017-10-02T06:42:48.264Z,0
2017-10-02T06:43:56.961Z,0
2017-10-02T06:45:06.294Z,0
2017-10-02T06:46:15.310Z,0
2017-10-02T06:47:24.326Z,0
2017-10-02T06:48:33.347Z,0
2017-10-02T06:49:42.678Z,0
2017-10-02T06:50:52.008Z,0
2017-10-02T06:52:00.704Z,0
2017-10-02T06:53:10.050Z,0
2017-10-02T06:54:19.384Z,0
2017-10-02T06:55:28.400Z,0
2017-10-02T06:56:38.371Z,0
2017-10-02T06:57:47.381Z,0
2017-10-02T06:58:57.036Z,0
2017-10-02T07:00:06.048Z,0
2017-10-02T07:01:14.747Z,0
2017-10-02T07:02:24.397Z,0
2017-10-02T07:03:33.416Z,0
2017-10-02T07:04:42.747Z,0
2017-10-02T07:05:51.442Z,0
2017-10-02T07:07:00.138Z,0
2017-10-02T07:08:09.160Z,0
2017-10-02T07:09:18.495Z,0
2017-10-02T07:10:27.502Z,0
2017-10-02T07:11:36.514Z,0
2017-10-02T07:12:45.844Z,0
2017-10-02T07:13:54.541Z,0
2017-10-02T07:15:03.875Z,0
2017-10-02T07:16:12.894Z,0
2017-10-02T07:17:22.252Z,0
2017-10-02T07:18:31.247Z,0
2017-10-02T07:19:39.946Z,0
2017-10-02T07:20:48.969Z,0
2017-10-02T07:21:57.664Z,0
2017-10-02T07:23:06.999Z,0
2017-10-02T07:24:16.343Z,0
2017-10-02T07:25:25.357Z,0
2017-10-02T07:26:34.690Z,0
2017-10-02T07:27:43.381Z,0
2017-10-02T07:28:52.076Z,0
2017-10-02T07:30:01.099Z,0
2017-10-02T07:31:10.749Z,0
2017-10-02T07:32:20.402Z,0
2017-10-02T07:33:30.083Z,0
2017-10-02T07:34:39.426Z,0
2017-10-02T07:35:48.759Z,0
2017-10-02T07:36:57.772Z,0
2017-10-02T07:38:07.109Z,0
2017-10-02T07:39:15.809Z,0
2017-10-02T07:40:24.822Z,0
2017-10-02T07:41:34.152Z,5
2017-10-02T07:42:42.844Z,0
2017-10-02T07:43:52.189Z,0
2017-10-02T07:45:01.523Z,5
2017-10-02T07:46:11.178Z,0
2017-10-02T07:47:20.191Z,0
2017-10-02T07:48:29.214Z,0
2017-10-02T07:49:38.229Z,5
2017-10-02T07:50:47.565Z,5
2017-10-02T07:51:56.581Z,5
2017-10-02T07:53:05.277Z,5
2017-10-02T07:54:14.930Z,5
2017-10-02T07:55:23.628Z,5
2017-10-02T07:56:32.967Z,5
2017-10-02T07:57:42.622Z,5
2017-10-02T07:58:51.313Z,5
2017-10-02T08:00:00.327Z,0
2017-10-02T08:01:09.658Z,0
2017-10-02T08:02:18.353Z,0
2017-10-02T08:03:27.361Z,5
2017-10-02T08:04:36.385Z,0
2017-10-02T08:05:46.360Z,0
2017-10-02T08:06:55.055Z,5
2017-10-02T08:08:04.389Z,0
2017-10-02T08:09:13.411Z,0
2017-10-02T08:10:22.102Z,0
2017-10-02T08:11:31.113Z,0
2017-10-02T08:12:40.143Z,0
2017-10-02T08:13:49.155Z,0
2017-10-02T08:14:58.810Z,0
2017-10-02T08:16:07.827Z,0
2017-10-02T08:17:16.841Z,0
2017-10-02T08:18:26.491Z,0
2017-10-02T08:19:35.502Z,0
2017-10-02T08:20:44.512Z,0
2017-10-02T08:21:53.839Z,0
2017-10-02T08:23:03.171Z,5
2017-10-02T08:24:11.868Z,5
2017-10-02T08:25:21.207Z,5
2017-10-02T08:26:30.228Z,5
2017-10-02T08:27:39.247Z,5
2017-10-02T08:28:48.265Z,5
2017-10-02T08:29:57.275Z,5
2017-10-02T08:31:05.973Z,5
2017-10-02T08:32:14.985Z,0
2017-10-02T08:33:24.010Z,5
2017-10-02T08:34:33.025Z,0
2017-10-02T08:35:42.041Z,0
2017-10-02T08:36:51.377Z,0
2017-10-02T08:38:00.718Z,0
2017-10-02T08:39:09.739Z,0
2017-10-02T08:40:18.754Z,0
2017-10-02T08:41:27.458Z,0
2017-10-02T08:42:36.793Z,0
2017-10-02T08:43:46.441Z,5
2017-10-02T08:44:55.140Z,5
2017-10-02T08:46:05.122Z,0
2017-10-02T08:47:13.814Z,5
2017-10-02T08:48:22.510Z,5
2017-10-02T08:49:31.525Z,5
2017-10-02T08:50:40.223Z,5
2017-10-02T08:51:49.564Z,5
2017-10-02T08:52:58.581Z,5
2017-10-02T08:54:07.595Z,10
2017-10-02T08:55:17.566Z,10
2017-10-02T08:56:26.589Z,5
2017-10-02T08:57:35.603Z,5
2017-10-02T08:58:44.301Z,5
2017-10-02T08:59:53.317Z,5
2017-10-02T09:01:02.330Z,10
2017-10-02T09:02:11.347Z,10
2017-10-02T09:03:20.364Z,10
2017-10-02T09:04:29.387Z,10
2017-10-02T09:05:38.082Z,10
2017-10-02T09:06:47.097Z,10
2017-10-02T09:07:55.791Z,5
2017-10-02T09:09:04.486Z,5
2017-10-02T09:10:13.822Z,5
2017-10-02T09:11:22.517Z,5
2017-10-02T09:12:31.214Z,5
2017-10-02T09:13:40.542Z,5
2017-10-02T09:14:49.556Z,10
2017-10-02T09:15:58.571Z,15
2017-10-02T09:17:07.585Z,15
2017-10-02T09:18:17.239Z,10
2017-10-02T09:19:25.935Z,10
2017-10-02T09:20:34.952Z,10
2017-10-02T09:21:43.648Z,10
2017-10-02T09:22:52.982Z,10
2017-10-02T09:24:02.327Z,10
2017-10-02T09:25:11.025Z,10
2017-10-02T09:26:20.357Z,10
2017-10-02T09:27:29.690Z,5
2017-10-02T09:28:38.703Z,5
2017-10-02T09:29:47.395Z,5
2017-10-02T09:30:56.409Z,5
2017-10-02T09:32:05.741Z,5
2017-10-02T09:33:14.433Z,5
2017-10-02T09:34:23.463Z,5
2017-10-02T09:35:32.476Z,5
2017-10-02T09:36:41.814Z,5
2017-10-02T09:37:51.147Z,5
2017-10-02T09:39:00.485Z,10
2017-10-02T09:40:10.142Z,10
2017-10-02T09:41:19.471Z,10
2017-10-02T09:42:28.484Z,5
2017-10-02T09:43:37.178Z,5
2017-10-02T09:44:46.193Z,5
2017-10-02T09:45:55.206Z,10
2017-10-02T09:47:03.897Z,10
2017-10-02T09:48:13.563Z,15
2017-10-02T09:49:22.258Z,10
2017-10-02T09:50:31.594Z,5
2017-10-02T09:51:40.608Z,5
2017-10-02T09:52:49.945Z,5
2017-10-02T09:53:58.957Z,5
2017-10-02T09:55:07.975Z,5
2017-10-02T09:56:16.988Z,5
2017-10-02T09:57:26.003Z,5
2017-10-02T09:58:35.659Z,5
2017-10-02T09:59:44.677Z,5
2017-10-02T10:00:53.695Z,5
2017-10-02T10:02:02.387Z,5
2017-10-02T10:03:11.725Z,5
2017-10-02T10:04:20.737Z,5
2017-10-02T10:05:29.433Z,10
2017-10-02T10:06:38.767Z,10
2017-10-02T10:07:47.463Z,15
2017-10-02T10:08:56.158Z,15
2017-10-02T10:10:05.809Z,15
2017-10-02T10:11:15.145Z,20
2017-10-02T10:12:24.159Z,25
2017-10-02T10:13:33.495Z,20
2017-10-02T10:14:42.824Z,20
2017-10-02T10:15:51.840Z,15
2017-10-02T10:17:01.175Z,15
2017-10-02T10:18:10.510Z,15
2017-10-02T10:19:20.168Z,15
2017-10-02T10:20:29.184Z,15
2017-10-02T10:21:38.837Z,15
2017-10-02T10:22:47.856Z,15
2017-10-02T10:23:56.873Z,10
2017-10-02T10:25:05.893Z,10
2017-10-02T10:26:14.915Z,10
2017-10-02T10:27:23.932Z,10
2017-10-02T10:28:32.949Z,10
2017-10-02T10:29:41.969Z,5
2017-10-02T10:30:51.621Z,5
2017-10-02T10:32:00.319Z,5
2017-10-02T10:33:09.338Z,10
2017-10-02T10:34:18.353Z,10
2017-10-02T10:35:27.050Z,10
2017-10-02T10:36:35.749Z,15
2017-10-02T10:37:45.079Z,15
2017-10-02T10:38:53.776Z,20
2017-10-02T10:40:02.472Z,15
2017-10-02T10:41:11.172Z,15
2017-10-02T10:42:20.507Z,15
2017-10-02T10:43:29.837Z,15
2017-10-02T10:44:38.850Z,15
2017-10-02T10:45:48.501Z,15
2017-10-02T10:46:57.517Z,10
2017-10-02T10:48:06.858Z,10
2017-10-02T10:49:16.514Z,10
2017-10-02T10:50:26.171Z,15
2017-10-02T10:51:35.506Z,10
2017-10-02T10:52:44.202Z,10
2017-10-02T10:53:52.899Z,10
2017-10-02T10:55:02.237Z,10
2017-10-02T10:56:11.256Z,10
2017-10-02T10:57:20.270Z,10
2017-10-02T10:58:29.282Z,10
2017-10-02T10:59:37.981Z,10
2017-10-02T11:00:46.995Z,15
2017-10-02T11:01:56.645Z,20
2017-10-02T11:03:05.985Z,20
2017-10-02T11:04:15.004Z,20
2017-10-02T11:05:24.016Z,15
2017-10-02T11:06:33.673Z,15
2017-10-02T11:07:42.685Z,15
2017-10-02T11:08:51.380Z,20
2017-10-02T11:10:00.394Z,15
2017-10-02T11:11:09.403Z,35
2017-10-02T11:12:18.741Z,25
2017-10-02T11:13:27.438Z,40
2017-10-02T11:14:37.091Z,40
2017-10-02T11:15:46.433Z,30
2017-10-02T11:16:55.477Z,30
2017-10-02T11:18:04.173Z,40
2017-10-02T11:19:13.830Z,40
2017-10-02T11:20:23.488Z,35
2017-10-02T11:21:32.181Z,35
2017-10-02T11:22:41.192Z,50
2017-10-02T11:23:49.887Z,45
2017-10-02T11:24:58.901Z,55
2017-10-02T11:26:08.239Z,30
2017-10-02T11:27:17.252Z,25
2017-10-02T11:28:26.586Z,25
2017-10-02T11:29:35.915Z,25
2017-10-02T11:30:45.568Z,15
2017-10-02T11:31:55.218Z,10
2017-10-02T11:33:04.552Z,10
2017-10-02T11:34:13.885Z,10
2017-10-02T11:35:22.902Z,20
2017-10-02T11:36:31.596Z,15
2017-10-02T11:37:40.294Z,10
2017-10-02T11:38:49.309Z,5
2017-10-02T11:39:58.005Z,5
2017-10-02T11:41:07.337Z,5
2017-10-02T11:42:16.987Z,5
2017-10-02T11:43:26.320Z,10
2017-10-02T11:44:35.661Z,5
2017-10-02T11:45:44.676Z,5
2017-10-02T11:46:53.687Z,5
2017-10-02T11:48:02.381Z,10
2017-10-02T11:49:11.395Z,55
2017-10-02T11:50:20.731Z,35
2017-10-02T11:51:30.383Z,40
2017-10-02T11:52:39.720Z,15
2017-10-02T11:53:48.736Z,10
2017-10-02T11:54:58.068Z,20
2017-10-02T11:56:07.721Z,15
2017-10-02T11:57:16.415Z,25
2017-10-02T11:58:25.743Z,40
2017-10-02T11:59:34.439Z,60
2017-10-02T12:00:43.132Z,60
2017-10-02T12:01:51.825Z,50
2017-10-02T12:03:01.474Z,20
2017-10-02T12:04:11.135Z,15
2017-10-02T12:05:20.791Z,25
2017-10-02T12:06:29.809Z,25
2017-10-02T12:07:39.146Z,95
2017-10-02T12:08:48.156Z,95
2017-10-02T12:09:57.191Z,105
2017-10-02T12:11:06.208Z,80
2017-10-02T12:12:15.864Z,70
2017-10-02T12:13:24.882Z,105
2017-10-02T12:14:33.577Z,65
2017-10-02T12:15:42.594Z,95
2017-10-02T12:16:51.930Z,85
2017-10-02T12:18:00.946Z,100
2017-10-02T12:19:09.955Z,35
2017-10-02T12:20:18.651Z,30
2017-10-02T12:21:28.302Z,30
2017-10-02T12:22:37.642Z,15
2017-10-02T12:23:46.341Z,15
2017-10-02T12:24:55.034Z,20
2017-10-02T12:26:05.012Z,15
2017-10-02T12:27:14.346Z,25
2017-10-02T12:28:23.680Z,55
2017-10-02T12:29:33.017Z,65
2017-10-02T12:30:41.711Z,115
2017-10-02T12:31:50.411Z,75
2017-10-02T12:32:59.106Z,85
2017-10-02T12:34:07.798Z,75
2017-10-02T12:35:16.815Z,70
2017-10-02T12:36:25.849Z,65
2017-10-02T12:37:35.503Z,70
2017-10-02T12:38:44.520Z,65
2017-10-02T12:39:53.854Z,65
2017-10-02T12:41:02.870Z,65
2017-10-02T12:42:12.526Z,65
2017-10-02T12:43:21.872Z,65
2017-10-02T12:44:30.889Z,65
2017-10-02T12:45:39.904Z,70
2017-10-02T12:46:49.558Z,60
2017-10-02T12:47:58.890Z,60
2017-10-02T12:49:07.584Z,75
2017-10-02T12:50:17.236Z,70
2017-10-02T12:51:26.567Z,60
2017-10-02T12:52:36.218Z,75
2017-10-02T12:53:45.235Z,85
2017-10-02T12:54:53.930Z,60
2017-10-02T12:56:03.582Z,55
2017-10-02T12:57:13.235Z,40
2017-10-02T12:58:22.249Z,70
2017-10-02T12:59:31.264Z,60
2017-10-02T13:00:39.963Z,45
2017-10-02T13:01:48.667Z,40
2017-10-02T13:02:58.005Z,25
2017-10-02T13:04:07.022Z,20
2017-10-02T13:05:16.677Z,35
2017-10-02T13:06:26.012Z,30
2017-10-02T13:07:35.030Z,40
2017-10-02T13:08:44.045Z,70
2017-10-02T13:09:53.068Z,65
2017-10-02T13:11:01.764Z,70
2017-10-02T13:12:11.096Z,80
2017-10-02T13:13:20.437Z,50
2017-10-02T13:14:29.769Z,85
2017-10-02T13:15:38.784Z,70
2017-10-02T13:16:47.801Z,65
2017-10-02T13:17:56.500Z,55
2017-10-02T13:19:05.834Z,50
2017-10-02T13:20:14.851Z,30
2017-10-02T13:21:23.545Z,50
2017-10-02T13:22:32.880Z,55
2017-10-02T13:23:41.898Z,45
2017-10-02T13:24:50.595Z,55
2017-10-02T13:25:59.609Z,45
2017-10-02T13:27:08.941Z,45
2017-10-02T13:28:17.635Z,45
2017-10-02T13:29:26.648Z,45
2017-10-02T13:30:35.670Z,30
2017-10-02T13:31:45.642Z,30
2017-10-02T13:32:54.658Z,45
2017-10-02T13:34:04.313Z,60
2017-10-02T13:35:13.649Z,45
2017-10-02T13:36:22.343Z,40
2017-10-02T13:37:31.995Z,45
2017-10-02T13:38:41.006Z,45
2017-10-02T13:39:50.342Z,40
2017-10-02T13:40:59.676Z,40
2017-10-02T13:42:09.014Z,50
2017-10-02T13:43:17.704Z,45
2017-10-02T13:44:27.358Z,45
2017-10-02T13:45:36.378Z,45
2017-10-02T13:46:46.033Z,35
2017-10-02T13:47:56.037Z,45
2017-10-02T13:49:05.064Z,45
2017-10-02T13:50:14.714Z,45
2017-10-02T13:51:23.417Z,40
2017-10-02T13:52:32.436Z,40
2017-10-02T13:53:41.452Z,35
2017-10-02T13:54:50.159Z,30
2017-10-02T13:55:59.175Z,40
2017-10-02T13:57:08.517Z,35
2017-10-02T13:58:17.536Z,30
2017-10-02T13:59:26.558Z,30
2017-10-02T14:00:35.252Z,40
2017-10-02T14:01:44.269Z,30
2017-10-02T14:02:53.602Z,30
2017-10-02T14:04:02.612Z,40
2017-10-02T14:05:11.625Z,45
2017-10-02T14:06:20.956Z,40
2017-10-02T14:07:29.973Z,40
2017-10-02T14:08:39.637Z,45
2017-10-02T14:09:48.331Z,45
2017-10-02T14:10:57.347Z,45
2017-10-02T14:12:06.043Z,40
2017-10-02T14:13:15.697Z,45
2017-10-02T14:14:24.399Z,50
2017-10-02T14:15:33.733Z,40
2017-10-02T14:16:43.708Z,30
2017-10-02T14:17:52.718Z,30
2017-10-02T14:19:01.407Z,35
2017-10-02T14:20:10.438Z,35
2017-10-02T14:21:19.454Z,35
2017-10-02T14:22:28.471Z,35
2017-10-02T14:23:37.809Z,30
2017-10-02T14:24:46.826Z,35
2017-10-02T14:25:56.167Z,35
2017-10-02T14:27:05.497Z,35
2017-10-02T14:28:14.195Z,45
2017-10-02T14:29:23.214Z,45
2017-10-02T14:30:31.913Z,45
2017-10-02T14:31:41.257Z,50
2017-10-02T14:32:50.273Z,50
2017-10-02T14:33:59.292Z,50
2017-10-02T14:35:08.315Z,50
2017-10-02T14:36:17.333Z,45
2017-10-02T14:37:26.357Z,35
2017-10-02T14:38:35.705Z,25
2017-10-02T14:39:45.370Z,20
2017-10-02T14:40:54.703Z,15
2017-10-02T14:42:03.717Z,15
2017-10-02T14:43:12.732Z,15
2017-10-02T14:44:21.430Z,15
2017-10-02T14:45:30.440Z,20
2017-10-02T14:46:39.457Z,20
2017-10-02T14:47:48.796Z,20
2017-10-02T14:48:57.496Z,20
2017-10-02T14:50:06.513Z,25
2017-10-02T14:51:15.211Z,25
2017-10-02T14:52:24.230Z,25
2017-10-02T14:53:33.247Z,25
2017-10-02T14:54:42.266Z,30
2017-10-02T14:55:50.966Z,30
2017-10-02T14:57:00.302Z,30
2017-10-02T14:58:08.999Z,35
2017-10-02T14:59:18.020Z,30
2017-10-02T15:00:27.031Z,30
2017-10-02T15:01:36.051Z,30
2017-10-02T15:02:45.070Z,30
2017-10-02T15:03:54.401Z,30
2017-10-02T15:05:03.422Z,30
2017-10-02T15:06:12.754Z,30
2017-10-02T15:07:21.770Z,30
2017-10-02T15:08:30.785Z,30
2017-10-02T15:09:39.799Z,30
2017-10-02T15:10:49.130Z,25
2017-10-02T15:11:58.791Z,25
2017-10-02T15:13:07.798Z,20
2017-10-02T15:14:17.135Z,20
2017-10-02T15:15:25.835Z,20
2017-10-02T15:16:34.848Z,20
2017-10-02T15:17:43.863Z,15
2017-10-02T15:18:52.878Z,15
2017-10-02T15:20:01.898Z,15
2017-10-02T15:21:10.908Z,15
2017-10-02T15:22:19.931Z,15
2017-10-02T15:23:29.269Z,15
2017-10-02T15:24:38.280Z,15
2017-10-02T15:25:47.937Z,15
2017-10-02T15:26:57.272Z,15
2017-10-02T15:28:06.606Z,15
2017-10-02T15:29:15.311Z,15
2017-10-02T15:30:24.003Z,15
2017-10-02T15:31:33.020Z,15
2017-10-02T15:32:42.036Z,15
2017-10-02T15:33:51.365Z,15
2017-10-02T15:35:00.061Z,15
2017-10-02T15:36:09.075Z,15
2017-10-02T15:37:18.408Z,15
2017-10-02T15:38:27.426Z,10
2017-10-02T15:39:36.127Z,10
2017-10-02T15:40:45.465Z,10
2017-10-02T15:41:54.472Z,10
2017-10-02T15:43:03.171Z,10
2017-10-02T15:44:12.201Z,10
2017-10-02T15:45:21.538Z,10
2017-10-02T15:46:30.236Z,10
2017-10-02T15:47:39.884Z,10
2017-10-02T15:48:48.581Z,5
2017-10-02T15:49:57.278Z,10
2017-10-02T15:51:06.612Z,10
2017-10-02T15:52:15.629Z,10
2017-10-02T15:53:24.966Z,15
2017-10-02T15:54:33.658Z,10
2017-10-02T15:55:42.673Z,10
2017-10-02T15:56:52.008Z,10
2017-10-02T15:58:01.665Z,10
2017-10-02T15:59:10.677Z,10
2017-10-02T16:00:19.696Z,5
2017-10-02T16:01:28.710Z,5
2017-10-02T16:02:38.360Z,5
2017-10-02T16:03:47.374Z,5
2017-10-02T16:04:56.065Z,5
2017-10-02T16:06:05.095Z,5
2017-10-02T16:07:14.747Z,5
2017-10-02T16:08:23.761Z,5
2017-10-02T16:09:32.453Z,5
2017-10-02T16:10:41.791Z,5
2017-10-02T16:11:51.123Z,0
2017-10-02T16:13:00.136Z,0
2017-10-02T16:14:10.107Z,0
2017-10-02T16:15:19.443Z,0
2017-10-02T16:16:28.143Z,5
2017-10-02T16:17:37.158Z,0
2017-10-02T16:18:46.809Z,0
2017-10-02T16:19:56.141Z,0
2017-10-02T16:21:05.152Z,0
2017-10-02T16:22:14.167Z,0
2017-10-02T16:23:23.177Z,0
2017-10-02T16:24:31.873Z,0
2017-10-02T16:25:40.890Z,0
2017-10-02T16:26:50.543Z,0
2017-10-02T16:27:59.878Z,0
2017-10-02T16:29:09.224Z,0
2017-10-02T16:30:19.194Z,0
2017-10-02T16:31:28.211Z,0
2017-10-02T16:32:36.903Z,0
2017-10-02T16:33:45.922Z,0
2017-10-02T16:34:55.593Z,0
2017-10-02T16:36:05.242Z,0
2017-10-02T16:37:14.902Z,0
2017-10-02T16:38:24.230Z,0
2017-10-02T16:39:33.570Z,0
2017-10-02T16:40:42.581Z,0
2017-10-02T16:41:51.596Z,0
2017-10-02T16:43:00.292Z,0
2017-10-02T16:44:09.304Z,0
2017-10-02T16:45:18.636Z,0
2017-10-02T16:46:27.335Z,0
2017-10-02T16:47:36.034Z,0
2017-10-02T16:48:44.730Z,0